This is the latest recevied weather packets stored in our database for station/object DH1NAI-6. If no packets are shown the sender has not sent any weather packets the latest 10 day(s).
| Time | Temp. | Humidity | Pressure | Rain* | Wind** | Luminosity | Snow |
|---|---|---|---|---|---|---|---|
| 1787915012 | 17.22° C | 99% | 1014.3 hPa | 1.02 mm | - | 6 W/m² | - |
| 1787914411 | 17.78° C | 99% | 1014.3 hPa | 1.02 mm | - | 6 W/m² | - |
| 1787913796 | 18.33° C | 99% | 1014.2 hPa | 1.02 mm | - | 5 W/m² | - |
| 1787913188 | 18.89° C | 99% | 1013.5 hPa | 1.02 mm | - | 2 W/m² | - |
| 1787912580 | 19.44° C | 96% | 1012.6 hPa | 0 mm | - | 13 W/m² | - |
| 1787911957 | 20° C | 97% | 1011.9 hPa | 0 mm | - | 16 W/m² | - |
| 1787911348 | 20.56° C | 95% | 1010.8 hPa | 0 mm | - | 35 W/m² | - |
| 1787910740 | 21.11° C | 93% | 1010.1 hPa | 0 mm | - | 51 W/m² | - |
| 1787910116 | 20.56° C | 91% | 1009.8 hPa | 0 mm | - | 60 W/m² | - |
| 1787909492 | 20° C | 95% | 1009.5 hPa | 0 mm | - | 64 W/m² | - |
| 1787908884 | 19.44° C | 97% | 1009.5 hPa | 0 mm | - | 53 W/m² | - |
| 1787908277 | 19.44° C | 97% | 1009.6 hPa | 0 mm | - | 26 W/m² | - |
| 1787907668 | 19.44° C | 96% | 1009.6 hPa | 0 mm | - | 25 W/m² | - |
| 1787907061 | 18.89° C | 97% | 1009.2 hPa | 0 mm | - | 34 W/m² | - |
| 1787906452 | 18.89° C | 97% | 1010.5 hPa | 0 mm | - | 28 W/m² | - |
| 1787905845 | 18.89° C | 98% | 1010.5 hPa | 0 mm | - | 56 W/m² | - |
| 1787905231 | 18.33° C | 99% | 1011.6 hPa | 0 mm | - | 36 W/m² | - |
| 1787904629 | 17.78° C | 99% | 1011.7 hPa | 0 mm | - | 31 W/m² | - |
| 1787904020 | 17.78° C | 99% | 1011.3 hPa | 1.02 mm | - | 23 W/m² | - |
| 1787903396 | 17.78° C | 99% | 1011.4 hPa | 1.02 mm | - | 14 W/m² | - |
| 1787902788 | 18.33° C | 96% | 1011.6 hPa | 1.02 mm | - | 8 W/m² | - |
| 1787902164 | 18.33° C | 94% | 1010.1 hPa | 0 mm | - | 9 W/m² | - |
| 1787901557 | 18.89° C | 94% | 1009.7 hPa | 0 mm | - | 23 W/m² | - |
| 1787900948 | 17.78° C | 96% | 1009.9 hPa | 0 mm | - | 43 W/m² | - |
| 1787900341 | 17.78° C | 98% | 1009.8 hPa | 1.02 mm | - | 28 W/m² | - |
* Rain latest hour (hover to see other rain measurements)
** Current wind speed in m/s (hover to see current wind gust speed)